Time;durP1;ratioP1;P1;durP2;ratioP2;P2;SDS_P1;SDS_P2;PMS_P1;PMS_P2;Temp;Humidity;BMP_temperature;BMP_pressure;BME280_temperature;BME280_humidity;BME280_pressure;Samples;Min_cycle;Max_cycle;Signal;HPM_P1;HPM_P2
2023/03/24 00:04:23;;;;;;;2.28;0.80;;;;;;;11.61;100.00;97345.94;15285449;19;20394;-46
2023/03/24 00:09:49;;;;;;;1.30;0.80;;;;;;;11.64;100.00;97342.88;15278254;19;20018;-44
2023/03/24 00:15:17;;;;;;;1.15;0.80;;;;;;;11.66;100.00;97337.25;15278425;19;20010;-46
2023/03/24 00:20:45;;;;;;;1.58;0.68;;;;;;;11.72;100.00;97331.91;15275331;19;20495;-48
2023/03/24 00:26:14;;;;;;;1.17;0.82;;;;;;;11.76;100.00;97332.34;15275509;19;20019;-45
2023/03/24 00:31:40;;;;;;;0.80;0.80;;;;;;;11.76;100.00;97323.44;15276873;19;20022;-47
2023/03/24 00:37:08;;;;;;;2.75;0.80;;;;;;;11.76;100.00;97321.56;15273719;19;20855;-45
2023/03/24 00:42:32;;;;;;;1.23;1.00;;;;;;;11.76;100.00;97308.06;15277026;19;20031;-45
2023/03/24 00:48:04;;;;;;;2.15;0.82;;;;;;;11.72;100.00;97307.63;15276071;19;20018;-47
2023/03/24 00:53:31;;;;;;;;;;;;;;;11.74;100.00;97301.22;15279694;19;20010;-45
2023/03/24 00:58:57;;;;;;;2.30;1.17;;;;;;;11.83;100.00;97305.44;15272411;19;19927;-46
2023/03/24 01:04:25;;;;;;;1.13;0.88;;;;;;;11.81;100.00;97302.13;15277878;19;20031;-46
2023/03/24 01:09:56;;;;;;;1.58;0.95;;;;;;;11.78;100.00;97306.03;15272460;19;20018;-44
2023/03/24 01:15:25;;;;;;;1.73;0.90;;;;;;;11.78;100.00;97289.00;15288697;19;20018;-46
2023/03/24 01:20:50;;;;;;;2.03;1.10;;;;;;;11.71;100.00;97287.09;15288087;19;20298;-44
2023/03/24 01:26:18;;;;;;;1.48;1.00;;;;;;;11.71;100.00;97287.09;15290403;19;20527;-45
2023/03/24 01:31:44;;;;;;;1.60;0.90;;;;;;;11.76;100.00;97280.28;15286454;19;20040;-45
2023/03/24 01:37:09;;;;;;;1.15;1.00;;;;;;;11.91;100.00;97278.31;15286499;19;20034;-45
2023/03/24 01:42:37;;;;;;;1.58;1.10;;;;;;;11.94;100.00;97269.78;15289135;19;21951;-48
2023/03/24 01:48:02;;;;;;;1.45;1.05;;;;;;;12.21;100.00;97267.28;15287755;19;20029;-45
2023/03/24 01:53:34;;;;;;;1.80;0.85;;;;;;;12.49;100.00;97242.88;15290401;19;20035;-46
2023/03/24 01:59:07;;;;;;;1.42;0.90;;;;;;;12.63;100.00;97241.06;15283360;19;20018;-45
2023/03/24 02:04:52;;;;;;;1.10;1.00;;;;;;;12.56;100.00;97240.19;15284206;19;20031;-46
2023/03/24 02:10:26;;;;;;;2.55;1.02;;;;;;;12.54;100.00;97220.66;15283003;19;20015;-46
2023/03/24 02:16:07;;;;;;;1.52;1.00;;;;;;;12.56;100.00;97244.78;15285982;19;20031;-46
2023/03/24 02:22:03;;;;;;;2.65;0.90;;;;;;;12.46;100.00;97220.84;15282769;19;20018;-49
2023/03/24 02:27:47;;;;;;;2.33;1.10;;;;;;;12.31;100.00;97218.31;15286896;19;20051;-46
2023/03/24 02:34:06;;;;;;;1.48;1.02;;;;;;;12.13;100.00;97211.56;15288300;19;20033;-51
2023/03/24 02:39:59;;;;;;;1.40;0.98;;;;;;;12.06;100.00;97197.22;15275794;19;20024;-48
2023/03/24 02:45:36;;;;;;;1.10;1.00;;;;;;;11.91;100.00;97194.66;15285955;19;20500;-50
2023/03/24 02:51:16;;;;;;;1.00;0.90;;;;;;;11.84;100.00;97209.94;15282754;19;20418;-49
2023/03/24 02:56:49;;;;;;;1.40;0.98;;;;;;;11.72;100.00;97207.81;15279568;19;20510;-50
2023/03/24 03:02:41;;;;;;;2.10;1.30;;;;;;;11.61;100.00;97199.47;15285090;19;20010;-45
2023/03/24 03:08:09;;;;;;;1.25;1.00;;;;;;;11.62;100.00;97201.94;15278426;19;20019;-53
2023/03/24 03:13:41;;;;;;;0.95;0.90;;;;;;;11.63;100.00;97192.00;15287343;19;20500;-51
2023/03/24 03:19:12;;;;;;;1.00;0.90;;;;;;;11.60;100.00;97174.34;15284275;19;20047;-46
2023/03/24 03:24:43;;;;;;;1.30;1.05;;;;;;;11.63;100.00;97160.47;15285024;19;20027;-48
2023/03/24 03:30:17;;;;;;;1.20;1.10;;;;;;;11.69;100.00;97148.03;15277855;19;20430;-46
2023/03/24 03:35:46;;;;;;;2.03;1.20;;;;;;;11.72;100.00;97143.06;15280225;19;20090;-46
2023/03/24 03:41:11;;;;;;;1.85;1.30;;;;;;;11.75;100.00;97119.41;15273938;19;20041;-46
2023/03/24 03:46:38;;;;;;;1.25;1.10;;;;;;;11.74;100.00;97109.66;15279438;19;20016;-51
2023/03/24 03:52:19;;;;;;;1.95;1.02;;;;;;;11.77;100.00;97103.88;15276989;19;20011;-52
2023/03/24 03:57:45;;;;;;;1.23;1.13;;;;;;;11.75;100.00;97098.69;15279588;19;20028;-46
2023/03/24 04:03:48;;;;;;;1.73;1.10;;;;;;;11.76;100.00;97094.94;15276014;19;20082;-47
2023/03/24 04:09:43;;;;;;;1.00;0.90;;;;;;;11.80;100.00;97095.38;15274031;19;20026;-50
2023/03/24 04:15:27;;;;;;;1.85;1.08;;;;;;;11.84;100.00;97083.13;15265372;19;20022;-51
2023/03/24 04:21:35;;;;;;;1.15;1.05;;;;;;;11.84;100.00;97085.81;15268405;19;20014;-52
2023/03/24 04:27:05;;;;;;;2.53;1.10;;;;;;;11.77;100.00;97079.59;15270966;19;20371;-53
2023/03/24 04:32:40;;;;;;;1.08;0.98;;;;;;;11.71;100.00;97082.03;15272847;19;20023;-49
2023/03/24 04:38:16;;;;;;;1.27;1.00;;;;;;;11.77;100.00;97079.59;15271051;19;20732;-48
2023/03/24 04:43:59;;;;;;;1.00;1.00;;;;;;;11.70;100.00;97074.16;15276138;19;20022;-50
2023/03/24 04:49:40;;;;;;;1.08;0.98;;;;;;;11.68;100.00;97055.50;15270369;19;20010;-48
2023/03/24 04:55:31;;;;;;;2.15;1.15;;;;;;;11.67;100.00;97048.44;15270070;19;20051;-48
2023/03/24 05:00:57;;;;;;;0.98;0.98;;;;;;;11.67;100.00;97048.44;15269914;19;20014;-50
2023/03/24 05:06:25;;;;;;;3.33;1.33;;;;;;;11.65;100.00;97055.88;15269449;19;21072;-49
2023/03/24 05:11:53;;;;;;;1.08;0.98;;;;;;;11.68;100.00;97050.09;15267016;19;20040;-52
2023/03/24 05:17:37;;;;;;;1.63;1.00;;;;;;;11.72;100.00;97050.53;15261807;19;20018;-49
2023/03/24 05:23:03;;;;;;;1.33;1.08;;;;;;;11.72;100.00;97040.53;15268646;19;20007;-49
2023/03/24 05:28:31;;;;;;;1.10;1.00;;;;;;;11.76;100.00;97026.66;15269126;19;20022;-50
2023/03/24 05:33:57;;;;;;;1.48;1.13;;;;;;;11.78;100.00;97027.28;15265067;19;20011;-50
2023/03/24 05:39:39;;;;;;;1.77;1.00;;;;;;;11.83;100.00;97028.34;15263596;19;20394;-54
2023/03/24 05:45:34;;;;;;;0.98;0.90;;;;;;;11.93;100.00;97019.03;15267846;19;20122;-52
2023/03/24 05:51:10;;;;;;;1.13;1.00;;;;;;;12.04;100.00;97021.16;15259623;19;20434;-52
2023/03/24 05:56:44;;;;;;;5.35;1.30;;;;;;;12.13;100.00;97011.81;15268433;19;20021;-50
2023/03/24 06:02:20;;;;;;;1.38;1.08;;;;;;;12.22;100.00;97009.75;15282518;19;20044;-48
2023/03/24 06:07:50;;;;;;;1.20;1.08;;;;;;;12.33;100.00;97014.53;15282158;19;20098;-54
2023/03/24 06:13:18;;;;;;;1.50;1.10;;;;;;;12.45;100.00;97011.19;15280550;19;20018;-50
2023/03/24 06:18:51;;;;;;;1.10;1.00;;;;;;;12.53;100.00;97013.69;15275653;19;20432;-52
2023/03/24 06:24:31;;;;;;;0.90;0.90;;;;;;;12.63;100.00;97018.66;15277000;19;20026;-53
2023/03/24 06:29:57;;;;;;;2.17;1.10;;;;;;;12.74;100.00;97001.81;15276996;19;20027;-49
2023/03/24 06:35:25;;;;;;;1.13;0.90;;;;;;;12.92;100.00;97022.78;15280949;19;20014;-52
2023/03/24 06:40:53;;;;;;;;;;;;;;;13.04;100.00;97011.34;15277282;19;20022;-53
2023/03/24 06:46:18;;;;;;;1.73;0.90;;;;;;;13.11;100.00;97009.47;15278470;19;20478;-48
2023/03/24 06:51:53;;;;;;;1.02;0.90;;;;;;;13.20;100.00;97008.19;15275278;19;20046;-49
2023/03/24 06:57:22;;;;;;;2.08;0.82;;;;;;;13.26;100.00;97028.94;15273473;19;20011;-48
2023/03/24 07:03:06;;;;;;;1.88;1.15;;;;;;;13.26;100.00;97023.53;15280282;19;20494;-49
2023/03/24 07:08:54;;;;;;;3.45;1.10;;;;;;;13.31;100.00;97027.50;15272715;19;20022;-51
2023/03/24 07:14:20;;;;;;;1.67;1.00;;;;;;;13.33;100.00;97022.69;15282318;19;20030;-48
2023/03/24 07:19:47;;;;;;;1.25;0.90;;;;;;;13.32;100.00;97012.91;15269557;19;20017;-52
2023/03/24 07:25:33;;;;;;;1.27;0.80;;;;;;;13.39;100.00;97011.00;15276416;19;20821;-50
2023/03/24 07:31:11;;;;;;;1.88;0.60;;;;;;;13.29;100.00;97013.34;15274683;19;20010;-50
2023/03/24 07:36:42;;;;;;;0.80;0.60;;;;;;;13.24;100.00;97041.84;15276465;19;20282;-53
2023/03/24 07:42:09;;;;;;;0.82;0.60;;;;;;;13.21;100.00;97036.03;15275691;19;20367;-51
2023/03/24 07:48:03;;;;;;;0.60;0.60;;;;;;;13.15;100.00;97058.53;15274805;19;20827;-51
2023/03/24 07:53:34;;;;;;;0.68;0.50;;;;;;;13.16;100.00;97049.38;15272776;19;20111;-51
2023/03/24 07:59:11;;;;;;;;;;;;;;;13.18;100.00;97085.13;15266698;19;20010;-51
2023/03/24 08:04:35;;;;;;;0.63;0.60;;;;;;;13.28;100.00;97068.47;15280493;19;19918;-51
2023/03/24 08:10:29;;;;;;;0.60;0.60;;;;;;;13.32;100.00;97075.13;15274596;19;20078;-48
2023/03/24 08:15:56;;;;;;;1.00;0.70;;;;;;;13.33;100.00;97057.84;15271376;19;20015;-53
2023/03/24 08:21:21;;;;;;;0.50;0.50;;;;;;;13.50;100.00;97071.78;15264459;19;20014;-49
2023/03/24 08:26:45;;;;;;;0.68;0.55;;;;;;;13.61;100.00;97068.41;15272366;19;20552;-49
2023/03/24 08:32:12;;;;;;;0.93;0.50;;;;;;;13.60;100.00;97060.47;15270163;19;20049;-51
2023/03/24 08:37:37;;;;;;;0.50;0.50;;;;;;;13.66;100.00;97076.69;15273208;19;20026;-51
2023/03/24 08:43:04;;;;;;;0.60;0.60;;;;;;;13.70;100.00;97064.41;15273250;19;20058;-48
2023/03/24 08:48:31;;;;;;;0.55;0.50;;;;;;;13.81;100.00;97057.50;15272771;19;20014;-52
2023/03/24 08:54:03;;;;;;;0.43;0.43;;;;;;;13.94;100.00;97051.16;15269979;19;20471;-52
2023/03/24 08:59:28;;;;;;;0.50;0.50;;;;;;;14.04;100.00;97050.72;15269226;19;20074;-55
2023/03/24 09:04:55;;;;;;;0.35;0.35;;;;;;;14.20;100.00;97053.94;15269996;19;20046;-53
2023/03/24 09:10:21;;;;;;;0.98;0.50;;;;;;;14.51;100.00;97042.25;15271179;19;20029;-52
2023/03/24 09:15:47;;;;;;;0.73;0.40;;;;;;;14.76;100.00;97055.00;15272811;19;20354;-50
2023/03/24 09:21:15;;;;;;;0.63;0.43;;;;;;;14.84;100.00;97064.75;15267889;19;20075;-54
2023/03/24 09:26:39;;;;;;;1.90;0.40;;;;;;;15.01;100.00;97068.53;15271802;19;20025;-52
2023/03/24 09:32:04;;;;;;;0.63;0.50;;;;;;;15.22;100.00;97055.63;15272207;19;20366;-52
2023/03/24 09:37:31;;;;;;;0.40;0.40;;;;;;;15.25;100.00;97045.16;15281901;19;20489;-53
2023/03/24 09:43:01;;;;;;;0.55;0.40;;;;;;;15.09;100.00;97043.00;15286955;19;20026;-50
2023/03/24 09:48:34;;;;;;;0.52;0.30;;;;;;;15.19;100.00;97054.16;15285742;19;20024;-51
2023/03/24 09:54:16;;;;;;;0.35;0.35;;;;;;;15.10;100.00;97059.06;15282401;19;20710;-52
2023/03/24 09:59:41;;;;;;;0.38;0.32;;;;;;;14.94;100.00;97065.88;15278811;19;20475;-48
2023/03/24 10:05:06;;;;;;;0.63;0.47;;;;;;;14.83;100.00;97054.94;15286920;19;20026;-49
2023/03/24 10:10:41;;;;;;;1.58;0.55;;;;;;;14.88;100.00;97063.22;15274005;19;20476;-48
2023/03/24 10:16:14;;;;;;;1.15;0.50;;;;;;;15.19;100.00;97058.78;15282546;19;20482;-49
2023/03/24 10:21:48;;;;;;;0.60;0.50;;;;;;;15.41;100.00;97070.00;15278497;19;20363;-48
2023/03/24 10:27:25;;;;;;;0.57;0.28;;;;;;;15.58;100.00;97059.41;15283195;19;20080;-48
2023/03/24 10:32:50;;;;;;;0.22;0.22;;;;;;;15.77;100.00;97065.63;15280864;19;20074;-48
2023/03/24 10:38:24;;;;;;;1.23;0.50;;;;;;;16.11;100.00;97041.59;15281469;19;20098;-48
2023/03/24 10:43:55;;;;;;;0.28;0.28;;;;;;;16.31;100.00;97052.16;15276478;19;20018;-48
2023/03/24 10:49:24;;;;;;;0.30;0.30;;;;;;;16.20;100.00;97052.97;15271865;19;20110;-52
2023/03/24 10:54:57;;;;;;;0.57;0.50;;;;;;;16.16;100.00;97070.81;15281524;19;20022;-55
2023/03/24 11:00:33;;;;;;;0.38;0.30;;;;;;;15.81;100.00;97090.44;15276617;19;20017;-51
2023/03/24 11:06:01;;;;;;;0.43;0.40;;;;;;;15.07;100.00;97092.06;15282347;19;20081;-55
2023/03/24 11:11:38;;;;;;;0.95;0.50;;;;;;;14.38;100.00;97100.09;15277307;19;20354;-54
2023/03/24 11:17:14;;;;;;;0.30;0.30;;;;;;;14.20;100.00;97105.38;15282833;19;20458;-53
2023/03/24 11:22:38;;;;;;;0.43;0.40;;;;;;;14.08;100.00;97127.75;15281949;19;20094;-55
2023/03/24 11:28:07;;;;;;;0.88;0.35;;;;;;;13.98;100.00;97116.53;15280755;19;20022;-55
2023/03/24 11:33:37;;;;;;;0.40;0.40;;;;;;;13.77;100.00;97137.47;15275926;19;20020;-56
2023/03/24 11:39:05;;;;;;;2.13;0.40;;;;;;;12.57;100.00;97171.63;15276827;19;20081;-51
2023/03/24 11:44:33;;;;;;;0.80;0.40;;;;;;;11.38;100.00;97187.91;15274953;19;20087;-54
2023/03/24 11:50:16;;;;;;;1.05;0.40;;;;;;;10.86;100.00;97202.63;15274810;19;20353;-54
2023/03/24 11:55:52;;;;;;;1.40;0.60;;;;;;;10.65;100.00;97209.66;15275575;19;20018;-55
2023/03/24 12:01:28;;;;;;;2.58;0.55;;;;;;;10.39;100.00;97245.22;15274699;19;20092;-54
2023/03/24 12:07:10;;;;;;;2.55;0.60;;;;;;;10.09;100.00;97239.88;15272867;19;20018;-53
2023/03/24 12:12:46;;;;;;;1.17;0.65;;;;;;;9.95;100.00;97233.44;15273947;19;20015;-53
2023/03/24 12:18:28;;;;;;;0.98;0.70;;;;;;;9.97;100.00;97234.09;15270406;19;20018;-52
2023/03/24 12:24:01;;;;;;;1.98;0.70;;;;;;;9.95;100.00;97231.63;15275350;19;20031;-53
2023/03/24 12:29:44;;;;;;;1.85;0.63;;;;;;;9.97;100.00;97228.72;15273057;19;20045;-53
2023/03/24 12:35:45;;;;;;;0.98;0.60;;;;;;;10.02;100.00;97234.41;15275744;19;20355;-54
2023/03/24 12:41:41;;;;;;;1.13;0.50;;;;;;;10.02;100.00;97250.53;15271174;19;20349;-54
2023/03/24 12:47:20;;;;;;;1.42;0.80;;;;;;;9.99;100.00;97256.28;15274062;19;20027;-52
2023/03/24 12:53:06;;;;;;;2.15;0.60;;;;;;;10.02;100.00;97237.09;15266197;19;20021;-52
2023/03/24 12:58:49;;;;;;;2.78;0.73;;;;;;;10.23;100.00;97248.94;15273849;19;20056;-54
2023/03/24 13:04:20;;;;;;;1.20;0.70;;;;;;;10.29;100.00;97262.47;15273212;19;20380;-57
2023/03/24 13:09:52;;;;;;;1.07;0.50;;;;;;;10.28;100.00;97239.28;15278233;19;20078;-52
2023/03/24 13:15:24;;;;;;;1.17;0.65;;;;;;;10.43;100.00;97231.19;15287594;19;20483;-55
2023/03/24 13:20:51;;;;;;;1.67;0.60;;;;;;;10.44;100.00;97219.41;15279578;19;20014;-54
2023/03/24 13:26:25;;;;;;;1.85;0.65;;;;;;;10.54;100.00;97189.47;15288634;19;20039;-56
2023/03/24 13:31:57;;;;;;;1.15;0.60;;;;;;;10.66;100.00;97164.72;15283205;19;20349;-52
2023/03/24 13:37:25;;;;;;;1.52;0.50;;;;;;;10.85;100.00;97191.00;15288857;19;20328;-52
2023/03/24 13:43:01;;;;;;;0.93;0.47;;;;;;;11.10;100.00;97190.59;15288037;19;20021;-53
2023/03/24 13:48:42;;;;;;;0.57;0.43;;;;;;;11.18;100.00;97184.22;15286762;19;20026;-55
2023/03/24 13:54:14;;;;;;;1.73;0.50;;;;;;;11.27;100.00;97199.22;15284150;19;20018;-55
2023/03/24 13:59:40;;;;;;;1.85;0.50;;;;;;;11.27;100.00;97169.56;15283572;19;20480;-53
2023/03/24 14:05:11;;;;;;;0.73;0.57;;;;;;;11.13;100.00;97186.66;15287908;19;20018;-54
2023/03/24 14:10:49;;;;;;;1.97;0.60;;;;;;;11.13;100.00;97155.16;15283146;19;20143;-57
2023/03/24 14:16:37;;;;;;;0.82;0.57;;;;;;;11.08;100.00;97136.91;15278708;19;20605;-55
2023/03/24 14:22:19;;;;;;;1.20;0.45;;;;;;;11.27;100.00;97139.91;15275446;19;20082;-52
2023/03/24 14:27:45;;;;;;;2.13;0.67;;;;;;;11.46;100.00;97130.28;15279319;19;20469;-55
2023/03/24 14:33:10;;;;;;;1.58;0.80;;;;;;;11.62;100.00;97142.59;15283402;19;20033;-52
2023/03/24 14:38:42;;;;;;;0.95;0.47;;;;;;;12.04;100.00;97141.78;15281061;19;20029;-56
2023/03/24 14:44:09;;;;;;;1.02;0.50;;;;;;;12.31;100.00;97131.91;15282345;19;20022;-54
2023/03/24 14:49:41;;;;;;;0.77;0.50;;;;;;;12.58;100.00;97140.88;15276794;19;20014;-54
2023/03/24 14:55:16;;;;;;;1.63;0.52;;;;;;;12.36;100.00;97134.78;15278775;19;20023;-55
2023/03/24 15:00:45;;;;;;;1.10;0.50;;;;;;;12.21;100.00;97145.78;15271325;19;20358;-54
2023/03/24 15:06:26;;;;;;;0.52;0.45;;;;;;;12.40;100.00;97119.84;15272609;19;20022;-54
2023/03/24 15:11:58;;;;;;;1.10;0.50;;;;;;;12.56;100.00;97137.53;15270496;19;20491;-53
2023/03/24 15:17:27;;;;;;;1.25;0.52;;;;;;;12.41;100.00;97132.31;15274687;19;20023;-55
2023/03/24 15:22:54;;;;;;;1.15;0.45;;;;;;;12.48;100.00;97125.06;15277159;19;20015;-53
2023/03/24 15:28:25;;;;;;;1.23;0.60;;;;;;;12.93;100.00;97110.13;15275432;19;20083;-54
2023/03/24 15:33:51;;;;;;;1.48;0.70;;;;;;;13.21;100.00;97128.81;15268513;19;20027;-54
2023/03/24 15:39:22;;;;;;;0.82;0.55;;;;;;;13.09;100.00;97142.13;15270687;19;20022;-56
2023/03/24 15:44:49;;;;;;;2.08;0.70;;;;;;;13.31;100.00;97138.38;15274357;19;20526;-55
2023/03/24 15:50:32;;;;;;;1.67;0.75;;;;;;;13.26;100.00;97147.13;15269756;19;20019;-55
2023/03/24 15:56:11;;;;;;;1.52;0.63;;;;;;;13.45;100.00;97131.94;15273749;19;20039;-55
2023/03/24 16:01:40;;;;;;;1.73;0.65;;;;;;;13.41;100.00;97122.56;15270183;19;20019;-55
2023/03/24 16:07:06;;;;;;;1.85;0.80;;;;;;;13.33;100.00;97122.78;15271799;19;20014;-54
2023/03/24 16:12:32;;;;;;;3.15;0.90;;;;;;;13.26;100.00;97131.72;15272488;19;20375;-53
2023/03/24 16:17:59;;;;;;;3.53;1.00;;;;;;;13.39;100.00;97127.31;15273400;19;20028;-54
2023/03/24 16:23:25;;;;;;;1.90;0.80;;;;;;;13.19;100.00;97140.88;15268231;19;20021;-55
2023/03/24 16:28:50;;;;;;;2.75;0.70;;;;;;;13.05;100.00;97164.38;15270038;19;20022;-54
2023/03/24 16:34:19;;;;;;;2.47;0.70;;;;;;;12.74;100.00;97172.06;15269617;19;20949;-55
2023/03/24 16:39:44;;;;;;;3.80;0.90;;;;;;;12.49;100.00;97171.81;15270744;19;20312;-53
2023/03/24 16:45:11;;;;;;;2.45;0.80;;;;;;;12.36;100.00;97163.69;15271343;19;20014;-54
2023/03/24 16:50:48;;;;;;;1.27;0.70;;;;;;;12.16;100.00;97172.56;15271765;19;20021;-52
2023/03/24 16:56:16;;;;;;;1.75;0.85;;;;;;;11.96;100.00;97194.84;15271499;19;20474;-58
2023/03/24 17:01:44;;;;;;;1.92;0.90;;;;;;;11.99;100.00;97191.81;15271620;19;20022;-53
2023/03/24 17:07:12;;;;;;;2.30;0.80;;;;;;;12.01;100.00;97189.75;15266256;19;20041;-52
2023/03/24 17:12:36;;;;;;;2.90;0.90;;;;;;;12.14;100.00;97186.25;15270930;19;20029;-52
2023/03/24 17:18:04;;;;;;;3.63;0.90;;;;;;;12.17;100.00;97176.94;15272784;19;20014;-53
2023/03/24 17:23:33;;;;;;;1.52;1.02;;;;;;;12.19;100.00;97191.03;15271424;19;20450;-52
2023/03/24 17:29:02;;;;;;;3.22;1.30;;;;;;;12.06;100.00;97185.59;15271446;19;20022;-51
2023/03/24 17:34:27;;;;;;;2.80;1.85;;;;;;;11.91;100.00;97194.66;15269668;19;20082;-53
2023/03/24 17:39:57;;;;;;;1.88;1.00;;;;;;;11.67;100.00;97191.41;15264225;19;20018;-51
2023/03/24 17:45:24;;;;;;;1.85;1.10;;;;;;;11.49;100.00;97205.41;15271802;19;20018;-53
2023/03/24 17:50:56;;;;;;;2.30;1.02;;;;;;;11.34;100.00;97212.75;15266299;19;20018;-52
2023/03/24 17:56:23;;;;;;;;;;;;;;;11.06;100.00;97209.03;15279308;19;20023;-51
2023/03/24 18:01:47;;;;;;;2.97;1.20;;;;;;;10.97;100.00;97222.81;15278230;19;19919;-53
2023/03/24 18:07:12;;;;;;;2.28;1.27;;;;;;;10.86;100.00;97213.41;15278046;19;20834;-52
2023/03/24 18:12:39;;;;;;;2.17;1.20;;;;;;;10.74;100.00;97215.75;15266799;19;20026;-50
2023/03/24 18:18:04;;;;;;;2.13;1.02;;;;;;;10.61;100.00;97211.91;15275067;19;20023;-51
2023/03/24 18:23:31;;;;;;;1.33;0.82;;;;;;;10.54;100.00;97210.16;15280720;19;20023;-53
2023/03/24 18:28:59;;;;;;;1.30;0.93;;;;;;;10.44;100.00;97207.81;15279660;19;20074;-55
2023/03/24 18:34:25;;;;;;;2.10;1.00;;;;;;;10.44;100.00;97227.47;15278350;19;20018;-54
2023/03/24 18:39:50;;;;;;;1.65;1.00;;;;;;;10.33;100.00;97233.31;15275782;19;20022;-53
2023/03/24 18:45:18;;;;;;;1.90;0.80;;;;;;;10.30;100.00;97239.91;15275693;19;20040;-54
2023/03/24 18:50:50;;;;;;;1.70;0.90;;;;;;;10.23;100.00;97235.47;15273381;19;20033;-51
2023/03/24 18:56:16;;;;;;;1.75;1.02;;;;;;;10.15;100.00;97239.09;15279580;19;20039;-50
2023/03/24 19:01:47;;;;;;;3.72;1.10;;;;;;;10.08;100.00;97238.19;15270074;19;20490;-53
2023/03/24 19:07:13;;;;;;;2.63;1.20;;;;;;;10.00;100.00;97241.81;15280110;19;20025;-55
2023/03/24 19:12:37;;;;;;;2.47;1.00;;;;;;;9.95;100.00;97238.84;15281619;19;20366;-51
2023/03/24 19:18:05;;;;;;;2.92;1.10;;;;;;;9.82;100.00;97231.44;15278267;19;20021;-54
2023/03/24 19:23:30;;;;;;;1.65;1.15;;;;;;;9.79;100.00;97240.72;15278646;19;20035;-54
2023/03/24 19:28:56;;;;;;;3.22;1.08;;;;;;;9.76;100.00;97241.06;15279865;19;20041;-52
2023/03/24 19:34:25;;;;;;;1.88;1.00;;;;;;;9.73;100.00;97244.13;15275765;19;20239;-53
2023/03/24 19:39:51;;;;;;;2.75;1.15;;;;;;;9.73;100.00;97246.81;15275318;19;20022;-51
2023/03/24 19:45:17;;;;;;;2.10;1.08;;;;;;;9.67;100.00;97231.44;15280067;19;20025;-51
2023/03/24 19:50:52;;;;;;;1.40;0.90;;;;;;;9.65;100.00;97244.22;15271198;19;20415;-55
2023/03/24 19:56:19;;;;;;;3.47;1.20;;;;;;;9.63;100.00;97251.63;15279690;19;20016;-52
2023/03/24 20:01:43;;;;;;;2.22;1.15;;;;;;;9.55;100.00;97252.56;15275054;19;20757;-50
2023/03/24 20:07:11;;;;;;;4.47;1.50;;;;;;;9.45;100.00;97249.31;15278650;19;20037;-51
2023/03/24 20:12:35;;;;;;;1.45;1.00;;;;;;;9.41;100.00;97259.59;15277636;19;20077;-52
2023/03/24 20:18:00;;;;;;;1.95;1.02;;;;;;;9.27;100.00;97257.69;15274414;19;20018;-52
2023/03/24 20:23:28;;;;;;;2.35;1.20;;;;;;;9.14;100.00;97258.31;15259718;19;20018;-53
2023/03/24 20:28:55;;;;;;;2.97;1.25;;;;;;;9.02;100.00;97272.19;15273151;19;20025;-53
2023/03/24 20:34:22;;;;;;;2.05;1.10;;;;;;;8.87;100.00;97268.59;15273917;19;20007;-50
2023/03/24 20:39:49;;;;;;;2.05;1.05;;;;;;;8.71;100.00;97274.91;15272755;19;20102;-52
2023/03/24 20:45:17;;;;;;;3.40;1.30;;;;;;;8.45;100.00;97276.03;15275117;19;20030;-54
2023/03/24 20:50:48;;;;;;;2.85;1.25;;;;;;;8.34;100.00;97269.22;15271965;19;20486;-51
2023/03/24 20:56:17;;;;;;;2.73;1.10;;;;;;;8.33;100.00;97279.13;15267830;19;20038;-51
2023/03/24 21:01:43;;;;;;;3.70;1.30;;;;;;;8.37;100.00;97274.22;15249123;19;20026;-50
2023/03/24 21:07:08;;;;;;;3.63;1.30;;;;;;;8.45;100.00;97268.00;15270668;19;20018;-50
2023/03/24 21:12:35;;;;;;;3.17;1.20;;;;;;;8.43;100.00;97268.19;15270698;19;20041;-53
2023/03/24 21:18:11;;;;;;;2.97;1.30;;;;;;;8.38;100.00;97277.75;14760396;19;10002021;-55
2023/03/24 21:23:37;;;;;;;3.30;1.30;;;;;;;8.45;100.00;97282.25;15269042;19;20411;-50
2023/03/24 21:29:05;;;;;;;3.13;1.30;;;;;;;8.44;100.00;97279.72;15267548;19;20487;-52
2023/03/24 21:34:30;;;;;;;2.40;1.20;;;;;;;8.53;100.00;97278.69;15286902;19;20042;-53
2023/03/24 21:39:55;;;;;;;2.63;1.13;;;;;;;8.63;100.00;97275.81;15282085;19;20010;-54
2023/03/24 21:45:26;;;;;;;4.50;1.10;;;;;;;8.76;100.00;97273.38;15284288;19;20011;-53
2023/03/24 21:50:59;;;;;;;4.83;1.50;;;;;;;8.84;100.00;97258.19;15279630;19;20015;-49
2023/03/24 21:56:24;;;;;;;2.22;1.10;;;;;;;9.00;100.00;97251.88;15287638;19;20467;-54
2023/03/24 22:01:51;;;;;;;3.53;1.20;;;;;;;9.10;100.00;97247.09;15280020;19;20042;-51
2023/03/24 22:07:21;;;;;;;3.22;1.10;;;;;;;9.19;100.00;97245.16;15285473;19;20018;-54
2023/03/24 22:12:47;;;;;;;1.58;0.90;;;;;;;9.25;100.00;97253.34;15286674;19;20045;-53
2023/03/24 22:18:14;;;;;;;2.45;1.00;;;;;;;9.29;100.00;97244.91;15286988;19;20019;-52
2023/03/24 22:23:41;;;;;;;2.47;0.90;;;;;;;9.32;100.00;97239.19;15282208;19;20014;-52
2023/03/24 22:29:06;;;;;;;2.72;1.00;;;;;;;9.26;100.00;97246.13;15282087;19;20621;-52
2023/03/24 22:34:34;;;;;;;4.10;1.05;;;;;;;9.25;100.00;97264.09;15287577;19;20698;-52
2023/03/24 22:39:59;;;;;;;2.97;0.90;;;;;;;9.32;100.00;97283.00;15282435;19;20316;-49
2023/03/24 22:45:24;;;;;;;4.25;1.20;;;;;;;9.48;100.00;97279.34;15286401;19;20351;-49
2023/03/24 22:50:58;;;;;;;3.40;0.93;;;;;;;9.48;100.00;97279.34;15263825;19;20496;-51
2023/03/24 22:56:24;;;;;;;4.45;1.10;;;;;;;9.42;100.00;97282.75;15281190;19;20006;-51
2023/03/24 23:01:49;;;;;;;1.80;0.80;;;;;;;9.41;100.00;97257.72;15275140;19;20561;-49
2023/03/24 23:07:29;;;;;;;0.90;0.60;;;;;;;9.34;100.00;97270.22;15282489;19;20019;-52
2023/03/24 23:12:53;;;;;;;1.13;0.60;;;;;;;9.28;100.00;97267.44;15279564;19;20107;-49
2023/03/24 23:18:19;;;;;;;1.95;0.80;;;;;;;9.26;100.00;97262.25;15281672;19;20472;-55
2023/03/24 23:23:48;;;;;;;2.13;0.70;;;;;;;9.33;100.00;97257.00;15278572;19;20477;-57
2023/03/24 23:29:12;;;;;;;2.10;0.80;;;;;;;9.23;100.00;97255.38;15281806;19;20014;-49
2023/03/24 23:34:37;;;;;;;2.67;1.00;;;;;;;9.12;100.00;97263.03;15277546;19;20014;-48
2023/03/24 23:40:13;;;;;;;2.42;1.10;;;;;;;8.98;100.00;97257.44;15276817;19;20023;-53
2023/03/24 23:45:39;;;;;;;2.42;0.80;;;;;;;8.90;100.00;97252.94;15281734;19;20350;-55
2023/03/24 23:51:04;;;;;;;2.28;0.80;;;;;;;8.83;100.00;97267.28;15275406;19;20470;-52
2023/03/24 23:56:36;;;;;;;2.65;0.93;;;;;;;8.71;100.00;97269.56;15279352;19;20021;-49
